sensor_id;sensor_type;location;lat;lon;timestamp;pressure;altitude;pressure_sealevel;temperature;humidity
62791;BME280;48830;53.426;10.300;2023-11-19T00:01:31;100872.81;;;22.78;68.18
62791;BME280;48830;53.426;10.300;2023-11-19T00:03:58;100860.72;;;22.74;68.72
62791;BME280;48830;53.426;10.300;2023-11-19T00:06:23;100843.06;;;22.79;68.34
62791;BME280;48830;53.426;10.300;2023-11-19T00:08:50;100837.00;;;22.79;68.03
62791;BME280;48830;53.426;10.300;2023-11-19T00:11:16;100820.47;;;22.77;68.06
62791;BME280;48830;53.426;10.300;2023-11-19T00:13:41;100816.88;;;22.79;67.87
62791;BME280;48830;53.426;10.300;2023-11-19T00:16:07;100823.88;;;22.79;68.35
62791;BME280;48830;53.426;10.300;2023-11-19T00:18:35;100815.22;;;22.77;68.30
62791;BME280;48830;53.426;10.300;2023-11-19T00:21:01;100801.38;;;22.73;68.50
62791;BME280;48830;53.426;10.300;2023-11-19T00:23:27;100782.03;;;22.76;68.42
62791;BME280;48830;53.426;10.300;2023-11-19T00:25:53;100779.41;;;22.76;68.19
62791;BME280;48830;53.426;10.300;2023-11-19T00:28:18;100763.69;;;22.76;67.98
62791;BME280;48830;53.426;10.300;2023-11-19T00:30:44;100761.13;;;22.74;68.09
62791;BME280;48830;53.426;10.300;2023-11-19T00:33:10;100759.44;;;22.73;68.44
62791;BME280;48830;53.426;10.300;2023-11-19T00:35:35;100763.88;;;22.71;68.53
62791;BME280;48830;53.426;10.300;2023-11-19T00:38:01;100745.41;;;22.74;68.00
62791;BME280;48830;53.426;10.300;2023-11-19T00:40:28;100752.50;;;22.72;68.21
62791;BME280;48830;53.426;10.300;2023-11-19T00:42:53;100749.88;;;22.72;67.99
62791;BME280;48830;53.426;10.300;2023-11-19T00:45:19;100735.16;;;22.68;68.62
62791;BME280;48830;53.426;10.300;2023-11-19T00:47:44;100728.00;;;22.73;68.12
62791;BME280;48830;53.426;10.300;2023-11-19T00:50:10;100726.38;;;22.69;68.18
62791;BME280;48830;53.426;10.300;2023-11-19T00:52:37;100718.50;;;22.71;68.03
62791;BME280;48830;53.426;10.300;2023-11-19T00:55:03;100720.19;;;22.72;68.03
62791;BME280;48830;53.426;10.300;2023-11-19T00:57:30;100712.31;;;22.72;68.16
62791;BME280;48830;53.426;10.300;2023-11-19T00:59:57;100715.91;;;22.69;68.61
62791;BME280;48830;53.426;10.300;2023-11-19T01:02:24;100712.34;;;22.70;68.16
62791;BME280;48830;53.426;10.300;2023-11-19T01:04:49;100698.41;;;22.70;68.58
62791;BME280;48830;53.426;10.300;2023-11-19T01:07:15;100702.00;;;22.67;68.48
62791;BME280;48830;53.426;10.300;2023-11-19T01:09:42;100688.84;;;22.69;68.45
62791;BME280;48830;53.426;10.300;2023-11-19T01:12:07;100672.38;;;22.65;68.67
62791;BME280;48830;53.426;10.300;2023-11-19T01:14:34;100661.00;;;22.66;68.25
62791;BME280;48830;53.426;10.300;2023-11-19T01:17:00;100670.50;;;22.69;68.39
62791;BME280;48830;53.426;10.300;2023-11-19T01:19:26;100662.78;;;22.66;68.22
62791;BME280;48830;53.426;10.300;2023-11-19T01:21:53;100651.41;;;22.65;68.42
62791;BME280;48830;53.426;10.300;2023-11-19T01:24:19;100654.91;;;22.66;68.43
62791;BME280;48830;53.426;10.300;2023-11-19T01:26:45;100651.31;;;22.68;68.37
62791;BME280;48830;53.426;10.300;2023-11-19T01:29:15;100647.91;;;22.66;68.58
62791;BME280;48830;53.426;10.300;2023-11-19T01:31:45;100625.19;;;22.65;68.53
62791;BME280;48830;53.426;10.300;2023-11-19T01:34:12;100631.34;;;22.64;68.58
62791;BME280;48830;53.426;10.300;2023-11-19T01:36:38;100609.53;;;22.64;68.65
62791;BME280;48830;53.426;10.300;2023-11-19T01:39:03;100604.25;;;22.65;68.56
62791;BME280;48830;53.426;10.300;2023-11-19T01:41:34;100593.75;;;22.65;68.19
62791;BME280;48830;53.426;10.300;2023-11-19T01:44:01;100599.13;;;22.62;68.54
62791;BME280;48830;53.426;10.300;2023-11-19T01:46:27;100590.50;;;22.60;68.29
62791;BME280;48830;53.426;10.300;2023-11-19T01:48:52;100586.09;;;22.61;68.58
62791;BME280;48830;53.426;10.300;2023-11-19T01:51:19;100591.22;;;22.64;68.23
62791;BME280;48830;53.426;10.300;2023-11-19T01:53:47;100598.34;;;22.60;68.40
62791;BME280;48830;53.426;10.300;2023-11-19T01:56:14;100594.00;;;22.59;68.74
62791;BME280;48830;53.426;10.300;2023-11-19T01:58:40;100583.69;;;22.54;68.54
62791;BME280;48830;53.426;10.300;2023-11-19T02:01:07;100568.84;;;22.55;68.92
62791;BME280;48830;53.426;10.300;2023-11-19T02:03:33;100554.75;;;22.58;68.84
62791;BME280;48830;53.426;10.300;2023-11-19T02:06:02;100547.69;;;22.60;68.54
62791;BME280;48830;53.426;10.300;2023-11-19T02:08:29;100542.59;;;22.57;68.76
62791;BME280;48830;53.426;10.300;2023-11-19T02:10:55;100539.91;;;22.58;68.71
62791;BME280;48830;53.426;10.300;2023-11-19T02:13:24;100535.56;;;22.57;68.44
62791;BME280;48830;53.426;10.300;2023-11-19T02:15:50;100527.72;;;22.57;68.70
62791;BME280;48830;53.426;10.300;2023-11-19T02:18:24;100519.78;;;22.59;68.49
62791;BME280;48830;53.426;10.300;2023-11-19T02:20:56;100513.03;;;22.53;68.93
62791;BME280;48830;53.426;10.300;2023-11-19T02:23:23;100511.16;;;22.57;68.79
62791;BME280;48830;53.426;10.300;2023-11-19T02:26:20;100509.38;;;22.57;68.56
62791;BME280;48830;53.426;10.300;2023-11-19T02:28:49;100499.91;;;22.53;68.42
62791;BME280;48830;53.426;10.300;2023-11-19T02:31:15;100496.53;;;22.51;68.70
62791;BME280;48830;53.426;10.300;2023-11-19T02:33:40;100492.00;;;22.54;68.91
62791;BME280;48830;53.426;10.300;2023-11-19T02:36:07;100484.94;;;22.57;68.53
62791;BME280;48830;53.426;10.300;2023-11-19T02:38:34;100487.63;;;22.55;68.33
62791;BME280;48830;53.426;10.300;2023-11-19T02:41:02;100477.19;;;22.53;68.65
62791;BME280;48830;53.426;10.300;2023-11-19T02:43:28;100475.63;;;22.49;69.07
62791;BME280;48830;53.426;10.300;2023-11-19T02:45:53;100459.00;;;22.50;68.51
62791;BME280;48830;53.426;10.300;2023-11-19T02:48:21;100444.25;;;22.48;68.53
62791;BME280;48830;53.426;10.300;2023-11-19T02:50:46;100437.38;;;22.45;69.01
62791;BME280;48830;53.426;10.300;2023-11-19T02:53:13;100431.22;;;22.46;69.09
62791;BME280;48830;53.426;10.300;2023-11-19T02:55:38;100421.59;;;22.47;68.76
62791;BME280;48830;53.426;10.300;2023-11-19T02:58:06;100418.03;;;22.48;69.19
62791;BME280;48830;53.426;10.300;2023-11-19T03:00:45;100409.41;;;22.46;68.91
62791;BME280;48830;53.426;10.300;2023-11-19T03:03:19;100395.41;;;22.47;68.96
62791;BME280;48830;53.426;10.300;2023-11-19T03:05:51;100397.06;;;22.49;68.67
62791;BME280;48830;53.426;10.300;2023-11-19T03:08:16;100381.38;;;22.48;68.93
62791;BME280;48830;53.426;10.300;2023-11-19T03:10:42;100372.59;;;22.49;68.74
62791;BME280;48830;53.426;10.300;2023-11-19T03:13:13;100375.22;;;22.49;68.89
62791;BME280;48830;53.426;10.300;2023-11-19T03:15:42;100374.44;;;22.47;68.99
62791;BME280;48830;53.426;10.300;2023-11-19T03:18:08;100371.81;;;22.47;68.87
62791;BME280;48830;53.426;10.300;2023-11-19T03:20:34;100367.44;;;22.47;68.86
62791;BME280;48830;53.426;10.300;2023-11-19T03:22:59;100357.03;;;22.46;68.92
62791;BME280;48830;53.426;10.300;2023-11-19T03:25:28;100370.03;;;22.47;69.08
62791;BME280;48830;53.426;10.300;2023-11-19T03:28:01;100355.19;;;22.48;68.59
62791;BME280;48830;53.426;10.300;2023-11-19T03:30:27;100349.94;;;22.48;68.74
62791;BME280;48830;53.426;10.300;2023-11-19T03:32:54;100343.00;;;22.47;68.72
62791;BME280;48830;53.426;10.300;2023-11-19T03:35:20;100332.41;;;22.50;68.79
62791;BME280;48830;53.426;10.300;2023-11-19T03:37:46;100335.94;;;22.49;68.76
62791;BME280;48830;53.426;10.300;2023-11-19T03:40:12;100340.28;;;22.50;68.71
62791;BME280;48830;53.426;10.300;2023-11-19T03:42:37;100326.31;;;22.49;68.55
62791;BME280;48830;53.426;10.300;2023-11-19T03:45:06;100319.25;;;22.51;68.37
62791;BME280;48830;53.426;10.300;2023-11-19T03:47:34;100306.16;;;22.51;68.56
62791;BME280;48830;53.426;10.300;2023-11-19T03:49:59;100305.38;;;22.49;68.72
62791;BME280;48830;53.426;10.300;2023-11-19T03:52:25;100304.38;;;22.52;68.51
62791;BME280;48830;53.426;10.300;2023-11-19T03:54:52;100300.13;;;22.49;68.75
62791;BME280;48830;53.426;10.300;2023-11-19T03:57:18;100304.38;;;22.52;68.50
62791;BME280;48830;53.426;10.300;2023-11-19T03:59:44;100302.53;;;22.54;68.86
62791;BME280;48830;53.426;10.300;2023-11-19T04:02:10;100306.06;;;22.53;68.46
62791;BME280;48830;53.426;10.300;2023-11-19T04:04:35;100291.22;;;22.53;68.55
62791;BME280;48830;53.426;10.300;2023-11-19T04:07:01;100290.25;;;22.56;68.34
62791;BME280;48830;53.426;10.300;2023-11-19T04:09:28;100297.28;;;22.54;68.61
62791;BME280;48830;53.426;10.300;2023-11-19T04:11:54;100295.47;;;22.56;68.43
62791;BME280;48830;53.426;10.300;2023-11-19T04:14:20;100298.88;;;22.58;68.68
62791;BME280;48830;53.426;10.300;2023-11-19T04:16:45;100292.00;;;22.56;68.57
62791;BME280;48830;53.426;10.300;2023-11-19T04:19:11;100289.31;;;22.57;68.24
62791;BME280;48830;53.426;10.300;2023-11-19T04:21:36;100281.34;;;22.60;68.16
62791;BME280;48830;53.426;10.300;2023-11-19T04:24:02;100280.44;;;22.61;68.37
62791;BME280;48830;53.426;10.300;2023-11-19T04:26:28;100274.25;;;22.62;68.50
62791;BME280;48830;53.426;10.300;2023-11-19T04:28:56;100275.19;;;22.61;68.30
62791;BME280;48830;53.426;10.300;2023-11-19T04:31:21;100261.00;;;22.65;68.14
62791;BME280;48830;53.426;10.300;2023-11-19T04:33:47;100261.66;;;22.70;68.06
62791;BME280;48830;53.426;10.300;2023-11-19T04:36:12;100253.88;;;22.69;68.57
62791;BME280;48830;53.426;10.300;2023-11-19T04:38:39;100252.91;;;22.71;68.08
62791;BME280;48830;53.426;10.300;2023-11-19T04:41:05;100254.47;;;22.75;67.86
62791;BME280;48830;53.426;10.300;2023-11-19T04:43:32;100242.84;;;22.81;67.77
62791;BME280;48830;53.426;10.300;2023-11-19T04:45:57;100253.22;;;22.84;67.84
62791;BME280;48830;53.426;10.300;2023-11-19T04:48:23;100246.13;;;22.86;68.16
62791;BME280;48830;53.426;10.300;2023-11-19T04:50:49;100242.50;;;22.90;67.57
62791;BME280;48830;53.426;10.300;2023-11-19T04:53:16;100237.25;;;22.90;67.86
62791;BME280;48830;53.426;10.300;2023-11-19T04:55:42;100239.75;;;22.93;67.51
62791;BME280;48830;53.426;10.300;2023-11-19T04:58:08;100241.38;;;22.96;67.52
62791;BME280;48830;53.426;10.300;2023-11-19T05:00:34;100231.88;;;22.93;67.96
62791;BME280;48830;53.426;10.300;2023-11-19T05:03:00;100245.00;;;22.93;67.87
62791;BME280;48830;53.426;10.300;2023-11-19T05:05:25;100235.16;;;22.98;67.71
62791;BME280;48830;53.426;10.300;2023-11-19T05:07:50;100240.31;;;23.00;67.38
62791;BME280;48830;53.426;10.300;2023-11-19T05:10:16;100222.75;;;23.02;67.21
62791;BME280;48830;53.426;10.300;2023-11-19T05:12:41;100219.28;;;23.01;67.69
62791;BME280;48830;53.426;10.300;2023-11-19T05:15:07;100227.06;;;23.03;67.24
62791;BME280;48830;53.426;10.300;2023-11-19T05:17:33;100220.00;;;23.05;67.34
62791;BME280;48830;53.426;10.300;2023-11-19T05:19:58;100215.47;;;23.09;67.07
62791;BME280;48830;53.426;10.300;2023-11-19T05:22:24;100206.81;;;23.07;67.64
62791;BME280;48830;53.426;10.300;2023-11-19T05:24:51;100212.91;;;23.07;67.19
62791;BME280;48830;53.426;10.300;2023-11-19T05:27:17;100214.47;;;23.11;67.03
62791;BME280;48830;53.426;10.300;2023-11-19T05:29:43;100204.81;;;23.12;67.16
62791;BME280;48830;53.426;10.300;2023-11-19T05:32:09;100202.28;;;23.10;67.18
62791;BME280;48830;53.426;10.300;2023-11-19T05:34:35;100198.81;;;23.10;67.31
62791;BME280;48830;53.426;10.300;2023-11-19T05:37:00;100195.09;;;23.14;66.84
62791;BME280;48830;53.426;10.300;2023-11-19T05:39:27;100191.63;;;23.13;67.45
62791;BME280;48830;53.426;10.300;2023-11-19T05:41:53;100193.50;;;23.11;67.12
62791;BME280;48830;53.426;10.300;2023-11-19T05:44:18;100196.88;;;23.13;67.40
62791;BME280;48830;53.426;10.300;2023-11-19T05:46:44;100186.28;;;23.16;67.47
62791;BME280;48830;53.426;10.300;2023-11-19T05:49:11;100187.13;;;23.17;66.92
62791;BME280;48830;53.426;10.300;2023-11-19T05:51:37;100185.53;;;23.13;66.94
62791;BME280;48830;53.426;10.300;2023-11-19T05:54:04;100184.56;;;23.15;67.35
62791;BME280;48830;53.426;10.300;2023-11-19T05:56:32;100181.03;;;23.16;67.20
62791;BME280;48830;53.426;10.300;2023-11-19T05:58:58;100179.16;;;23.18;66.81
62791;BME280;48830;53.426;10.300;2023-11-19T06:01:26;100175.84;;;23.15;67.46
62791;BME280;48830;53.426;10.300;2023-11-19T06:03:52;100173.44;;;23.10;67.60
62791;BME280;48830;53.426;10.300;2023-11-19T06:06:18;100175.91;;;23.13;67.17
62791;BME280;48830;53.426;10.300;2023-11-19T06:08:44;100179.25;;;23.17;67.65
62791;BME280;48830;53.426;10.300;2023-11-19T06:11:10;100181.03;;;23.16;67.36
62791;BME280;48830;53.426;10.300;2023-11-19T06:13:40;100182.72;;;23.17;67.10
62791;BME280;48830;53.426;10.300;2023-11-19T06:16:05;100180.91;;;23.19;67.35
62791;BME280;48830;53.426;10.300;2023-11-19T06:18:31;100179.16;;;23.18;67.15
62791;BME280;48830;53.426;10.300;2023-11-19T06:20:56;100187.97;;;23.17;67.39
62791;BME280;48830;53.426;10.300;2023-11-19T06:23:22;100184.56;;;23.15;67.47
62791;BME280;48830;53.426;10.300;2023-11-19T06:25:47;100178.31;;;23.18;67.84
62791;BME280;48830;53.426;10.300;2023-11-19T06:28:13;100175.66;;;23.19;67.18
62791;BME280;48830;53.426;10.300;2023-11-19T06:30:38;100178.28;;;23.19;67.40
62791;BME280;48830;53.426;10.300;2023-11-19T06:33:04;100176.53;;;23.18;67.66
62791;BME280;48830;53.426;10.300;2023-11-19T06:35:30;100177.47;;;23.17;67.73
62791;BME280;48830;53.426;10.300;2023-11-19T06:38:02;100183.56;;;23.18;67.79
62791;BME280;48830;53.426;10.300;2023-11-19T06:40:28;100184.38;;;23.20;67.61
62791;BME280;48830;53.426;10.300;2023-11-19T06:42:55;100181.78;;;23.18;67.69
62791;BME280;48830;53.426;10.300;2023-11-19T06:45:20;100184.28;;;23.21;67.30
62791;BME280;48830;53.426;10.300;2023-11-19T06:47:46;100185.97;;;23.22;67.57
62791;BME280;48830;53.426;10.300;2023-11-19T06:50:11;100184.41;;;23.18;67.28
62791;BME280;48830;53.426;10.300;2023-11-19T06:52:37;100188.69;;;23.21;67.26
62791;BME280;48830;53.426;10.300;2023-11-19T06:55:04;100192.34;;;23.17;67.74
62791;BME280;48830;53.426;10.300;2023-11-19T06:57:29;100181.66;;;23.21;67.48
62791;BME280;48830;53.426;10.300;2023-11-19T06:59:57;100186.91;;;23.21;67.80
62791;BME280;48830;53.426;10.300;2023-11-19T07:02:23;100183.50;;;23.19;67.34
62791;BME280;48830;53.426;10.300;2023-11-19T07:04:49;100192.91;;;23.23;67.31
62791;BME280;48830;53.426;10.300;2023-11-19T07:07:15;100185.97;;;23.22;67.41
62791;BME280;48830;53.426;10.300;2023-11-19T07:09:40;100187.66;;;23.23;67.31
62791;BME280;48830;53.426;10.300;2023-11-19T07:12:06;100199.16;;;23.21;67.44
62791;BME280;48830;53.426;10.300;2023-11-19T07:14:32;100200.88;;;23.22;67.75
62791;BME280;48830;53.426;10.300;2023-11-19T07:16:57;100198.25;;;23.22;67.75
62791;BME280;48830;53.426;10.300;2023-11-19T07:19:23;100200.94;;;23.20;67.68
62791;BME280;48830;53.426;10.300;2023-11-19T07:21:48;100204.50;;;23.19;67.82
62791;BME280;48830;53.426;10.300;2023-11-19T07:24:14;100196.38;;;23.24;68.03
62791;BME280;48830;53.426;10.300;2023-11-19T07:26:43;100205.25;;;23.21;67.78
62791;BME280;48830;53.426;10.300;2023-11-19T07:29:09;100204.69;;;23.15;67.97
62791;BME280;48830;53.426;10.300;2023-11-19T07:31:35;100207.38;;;23.13;68.48
62791;BME280;48830;53.426;10.300;2023-11-19T07:34:01;100199.75;;;23.09;69.06
62791;BME280;48830;53.426;10.300;2023-11-19T07:36:26;100203.97;;;23.11;69.27
62791;BME280;48830;53.426;10.300;2023-11-19T07:38:52;100198.53;;;23.16;68.93
62791;BME280;48830;53.426;10.300;2023-11-19T07:41:18;100207.88;;;23.21;69.22
62791;BME280;48830;53.426;10.300;2023-11-19T07:43:45;100201.59;;;23.25;68.71
62791;BME280;48830;53.426;10.300;2023-11-19T07:46:12;100205.09;;;23.24;68.79
62791;BME280;48830;53.426;10.300;2023-11-19T07:48:41;100212.06;;;23.25;68.45
62791;BME280;48830;53.426;10.300;2023-11-19T07:51:07;100212.06;;;23.25;68.71
62791;BME280;48830;53.426;10.300;2023-11-19T07:53:33;100201.59;;;23.25;68.91
62791;BME280;48830;53.426;10.300;2023-11-19T07:55:59;100216.47;;;23.25;68.89
62791;BME280;48830;53.426;10.300;2023-11-19T07:58:25;100211.16;;;23.26;68.59
62791;BME280;48830;53.426;10.300;2023-11-19T08:00:51;100215.34;;;23.30;68.50
62791;BME280;48830;53.426;10.300;2023-11-19T08:03:17;100213.59;;;23.29;68.04
62791;BME280;48830;53.426;10.300;2023-11-19T08:05:44;100219.00;;;23.26;68.75
62791;BME280;48830;53.426;10.300;2023-11-19T08:08:11;100213.56;;;23.31;68.31
62791;BME280;48830;53.426;10.300;2023-11-19T08:10:37;100217.03;;;23.31;68.17
62791;BME280;48830;53.426;10.300;2023-11-19T08:13:03;100219.69;;;23.30;68.20
62791;BME280;48830;53.426;10.300;2023-11-19T08:15:28;100222.41;;;23.28;69.02
62791;BME280;48830;53.426;10.300;2023-11-19T08:17:55;100221.47;;;23.29;68.37
62791;BME280;48830;53.426;10.300;2023-11-19T08:20:20;100232.13;;;23.26;68.71
62791;BME280;48830;53.426;10.300;2023-11-19T08:22:45;100230.47;;;23.24;68.39
62791;BME280;48830;53.426;10.300;2023-11-19T08:25:11;100235.59;;;23.27;68.37
62791;BME280;48830;53.426;10.300;2023-11-19T08:27:36;100237.66;;;23.20;68.64
62791;BME280;48830;53.426;10.300;2023-11-19T08:30:03;100240.00;;;23.26;68.75
62791;BME280;48830;53.426;10.300;2023-11-19T08:32:28;100240.69;;;23.30;68.23
62791;BME280;48830;53.426;10.300;2023-11-19T08:34:54;100236.44;;;23.27;68.49
62791;BME280;48830;53.426;10.300;2023-11-19T08:37:19;100243.38;;;23.28;68.78
62791;BME280;48830;53.426;10.300;2023-11-19T08:39:47;100245.25;;;23.26;68.47
62791;BME280;48830;53.426;10.300;2023-11-19T08:42:12;100240.06;;;23.25;68.64
62791;BME280;48830;53.426;10.300;2023-11-19T08:44:38;100242.63;;;23.26;68.87
62791;BME280;48830;53.426;10.300;2023-11-19T08:47:04;100243.47;;;23.27;68.98
62791;BME280;48830;53.426;10.300;2023-11-19T08:49:29;100238.28;;;23.25;68.77
62791;BME280;48830;53.426;10.300;2023-11-19T08:51:55;100249.69;;;23.24;69.03
62791;BME280;48830;53.426;10.300;2023-11-19T08:54:20;100252.31;;;23.24;69.07
62791;BME280;48830;53.426;10.300;2023-11-19T08:56:48;100251.53;;;23.22;69.12
62791;BME280;48830;53.426;10.300;2023-11-19T08:59:13;100251.53;;;23.22;69.35
62791;BME280;48830;53.426;10.300;2023-11-19T09:01:40;100252.47;;;23.21;69.29
62791;BME280;48830;53.426;10.300;2023-11-19T09:04:06;100257.41;;;23.27;68.66
62791;BME280;48830;53.426;10.300;2023-11-19T09:06:32;100248.78;;;23.25;68.91
62791;BME280;48830;53.426;10.300;2023-11-19T09:08:57;100259.13;;;23.28;68.90
62791;BME280;48830;53.426;10.300;2023-11-19T09:11:26;100262.38;;;23.34;68.55
62791;BME280;48830;53.426;10.300;2023-11-19T09:13:52;100266.50;;;23.58;67.94
62791;BME280;48830;53.426;10.300;2023-11-19T09:16:18;100271.63;;;23.80;67.59
62791;BME280;48830;53.426;10.300;2023-11-19T09:18:43;100272.25;;;23.66;67.97
62791;BME280;48830;53.426;10.300;2023-11-19T09:21:11;100270.19;;;23.73;67.46
62791;BME280;48830;53.426;10.300;2023-11-19T09:23:36;100272.91;;;23.71;67.21
62791;BME280;48830;53.426;10.300;2023-11-19T09:26:05;100279.84;;;23.72;67.69
62791;BME280;48830;53.426;10.300;2023-11-19T09:28:31;100286.31;;;23.65;67.40
62791;BME280;48830;53.426;10.300;2023-11-19T09:30:56;100284.44;;;23.67;67.57
62791;BME280;48830;53.426;10.300;2023-11-19T09:33:22;100282.38;;;23.55;67.89
62791;BME280;48830;53.426;10.300;2023-11-19T09:35:48;100288.44;;;23.57;68.47
62791;BME280;48830;53.426;10.300;2023-11-19T09:38:15;100283.94;;;23.59;68.71
62791;BME280;48830;53.426;10.300;2023-11-19T09:40:40;100279.53;;;23.60;68.41
62791;BME280;48830;53.426;10.300;2023-11-19T09:43:07;100288.69;;;23.51;68.52
62791;BME280;48830;53.426;10.300;2023-11-19T09:45:50;100283.25;;;23.37;68.82
62791;BME280;48830;53.426;10.300;2023-11-19T09:48:18;100281.78;;;23.29;69.30
62791;BME280;48830;53.426;10.300;2023-11-19T09:50:47;100287.97;;;23.28;69.25
62791;BME280;48830;53.426;10.300;2023-11-19T09:53:14;100287.63;;;23.36;69.23
62791;BME280;48830;53.426;10.300;2023-11-19T09:55:39;100283.25;;;23.37;68.96
62791;BME280;48830;53.426;10.300;2023-11-19T09:58:06;100288.31;;;23.40;68.97
62791;BME280;48830;53.426;10.300;2023-11-19T10:00:32;100283.25;;;23.37;69.33
62791;BME280;48830;53.426;10.300;2023-11-19T10:02:59;100286.72;;;23.37;69.69
62791;BME280;48830;53.426;10.300;2023-11-19T10:05:25;100281.94;;;23.45;69.15
62791;BME280;48830;53.426;10.300;2023-11-19T10:07:52;100276.41;;;23.51;69.34
62791;BME280;48830;53.426;10.300;2023-11-19T10:10:17;100282.66;;;23.49;69.82
62791;BME280;48830;53.426;10.300;2023-11-19T10:12:47;100283.94;;;23.59;69.44
62791;BME280;48830;53.426;10.300;2023-11-19T10:15:20;100278.19;;;23.51;69.45
62791;BME280;48830;53.426;10.300;2023-11-19T10:17:47;100281.41;;;23.57;69.92
62791;BME280;48830;53.426;10.300;2023-11-19T10:20:13;100282.91;;;23.63;70.04
62791;BME280;48830;53.426;10.300;2023-11-19T10:22:39;100280.31;;;23.62;69.45
62791;BME280;48830;53.426;10.300;2023-11-19T10:25:10;100272.53;;;23.60;69.52
62791;BME280;48830;53.426;10.300;2023-11-19T10:27:47;100276.84;;;23.61;69.75
62791;BME280;48830;53.426;10.300;2023-11-19T10:30:17;100272.44;;;23.63;70.15
62791;BME280;48830;53.426;10.300;2023-11-19T10:32:43;100279.06;;;23.70;69.90
62791;BME280;48830;53.426;10.300;2023-11-19T10:35:08;100277.38;;;23.69;69.95
62791;BME280;48830;53.426;10.300;2023-11-19T10:37:37;100276.44;;;23.70;69.38
62791;BME280;48830;53.426;10.300;2023-11-19T10:40:03;100276.53;;;23.69;69.54
62791;BME280;48830;53.426;10.300;2023-11-19T10:42:30;100280.84;;;23.70;69.68
62791;BME280;48830;53.426;10.300;2023-11-19T10:44:56;100279.91;;;23.71;69.85
62791;BME280;48830;53.426;10.300;2023-11-19T10:47:23;100285.25;;;23.69;69.50
62791;BME280;48830;53.426;10.300;2023-11-19T10:49:49;100279.78;;;23.74;69.89
62791;BME280;48830;53.426;10.300;2023-11-19T10:52:18;100275.44;;;23.73;69.89
62791;BME280;48830;53.426;10.300;2023-11-19T10:54:50;100282.53;;;23.71;69.53
62791;BME280;48830;53.426;10.300;2023-11-19T10:57:20;100282.00;;;23.64;69.57
62791;BME280;48830;53.426;10.300;2023-11-19T10:59:47;100287.72;;;23.72;69.61
62791;BME280;48830;53.426;10.300;2023-11-19T11:02:19;100281.63;;;23.72;69.64
62791;BME280;48830;53.426;10.300;2023-11-19T11:04:47;100283.25;;;23.74;69.48
62791;BME280;48830;53.426;10.300;2023-11-19T11:07:14;100283.41;;;23.71;69.83
62791;BME280;48830;53.426;10.300;2023-11-19T11:09:41;100275.59;;;23.70;69.80
62791;BME280;48830;53.426;10.300;2023-11-19T11:12:09;100280.28;;;23.63;70.01
62791;BME280;48830;53.426;10.300;2023-11-19T11:14:37;100275.03;;;23.63;69.88
62791;BME280;48830;53.426;10.300;2023-11-19T11:17:03;100273.81;;;23.70;69.66
62791;BME280;48830;53.426;10.300;2023-11-19T11:19:33;100284.97;;;23.75;69.89
62791;BME280;48830;53.426;10.300;2023-11-19T11:22:00;100286.31;;;23.65;70.13
62791;BME280;48830;53.426;10.300;2023-11-19T11:30:07;100286.66;;;23.76;69.86
62791;BME280;48830;53.426;10.300;2023-11-19T11:33:35;100288.81;;;23.68;70.26
62791;BME280;48830;53.426;10.300;2023-11-19T11:38:35;100285.38;;;23.66;69.78
62791;BME280;48830;53.426;10.300;2023-11-19T11:41:23;100295.28;;;23.60;70.44
62791;BME280;48830;53.426;10.300;2023-11-19T11:43:50;100290.78;;;23.63;70.44
62791;BME280;48830;53.426;10.300;2023-11-19T11:48:58;100296.88;;;23.64;69.94
62791;BME280;48830;53.426;10.300;2023-11-19T11:54:10;100296.03;;;23.63;70.06
62791;BME280;48830;53.426;10.300;2023-11-19T11:56:38;100296.88;;;23.64;69.87
62791;BME280;48830;53.426;10.300;2023-11-19T11:59:08;100292.78;;;23.56;70.18
62791;BME280;48830;53.426;10.300;2023-11-19T12:01:58;100298.69;;;23.62;69.80
62791;BME280;48830;53.426;10.300;2023-11-19T12:04:26;100290.81;;;23.62;69.91
62791;BME280;48830;53.426;10.300;2023-11-19T12:07:22;100292.31;;;23.67;70.25
62791;BME280;48830;53.426;10.300;2023-11-19T12:10:08;100291.63;;;23.64;70.17
62791;BME280;48830;53.426;10.300;2023-11-19T12:12:34;100293.59;;;23.58;70.53
62791;BME280;48830;53.426;10.300;2023-11-19T12:15:06;100293.03;;;23.52;70.34
62791;BME280;48830;53.426;10.300;2023-11-19T12:20:00;100293.03;;;23.52;69.92
62791;BME280;48830;53.426;10.300;2023-11-19T12:22:26;100292.97;;;23.53;70.64
62791;BME280;48830;53.426;10.300;2023-11-19T12:24:55;100302.59;;;23.53;70.17
62791;BME280;48830;53.426;10.300;2023-11-19T12:27:21;100295.38;;;23.58;70.03
62791;BME280;48830;53.426;10.300;2023-11-19T12:29:51;100292.66;;;23.60;70.03
62791;BME280;48830;53.426;10.300;2023-11-19T12:32:18;100294.28;;;23.62;69.99
62791;BME280;48830;53.426;10.300;2023-11-19T12:34:44;100288.94;;;23.65;69.47
62791;BME280;48830;53.426;10.300;2023-11-19T12:37:10;100287.25;;;23.64;69.55
62791;BME280;48830;53.426;10.300;2023-11-19T12:39:36;100286.41;;;23.64;69.72
62791;BME280;48830;53.426;10.300;2023-11-19T12:42:01;100289.03;;;23.62;70.26
62791;BME280;48830;53.426;10.300;2023-11-19T12:44:27;100282.47;;;23.72;69.34
62791;BME280;48830;53.426;10.300;2023-11-19T12:47:06;100283.25;;;23.74;69.31
62791;BME280;48830;53.426;10.300;2023-11-19T12:49:32;100281.28;;;23.79;69.11
62791;BME280;48830;53.426;10.300;2023-11-19T12:51:58;100281.28;;;23.79;69.66
62791;BME280;48830;53.426;10.300;2023-11-19T12:54:37;100290.69;;;23.83;69.44
62791;BME280;48830;53.426;10.300;2023-11-19T12:57:03;100289.28;;;23.76;69.58